Overview Statistics Trail Chart Weather Telemetry Raw packets
 

This is the latest recevied weather packets stored in our database for station/object HA2SKA-1. If no packets are shown the sender has not sent any weather packets the latest 10 day(s).

<< 11 12 13 14 15 16 17 >>
Time Temp. Humidity Pressure Rain* Wind** Luminosity Snow
1788380407 21.67° C 86% 1021.4 hPa - - - -
1788379507 21.67° C 87% 1021.4 hPa - - - -
1788378607 22.78° C 84% 1021.3 hPa - - - -
1788377707 21.11° C 94% 1021.3 hPa - - - -
1788376807 22.22° C 88% 1021.3 hPa - - - -
1788375907 22.22° C 85% 1021.2 hPa - - - -
1788375007 23.89° C 73% 1021.1 hPa - - - -
1788374106 26.11° C 65% 1021 hPa - - - -
1788373206 26.11° C 64% 1021 hPa - - - -
1788372306 26.11° C 63% 1020.6 hPa - - - -
1788371406 27.78° C 59% 1020.6 hPa - - - -
1788370506 26.11° C 62% 1020.5 hPa - - - -
1788369606 26.11° C 62% 1020.3 hPa - - - -
1788368706 28.33° C 55% 1020.2 hPa - - - -
1788367806 28.89° C 52% 1020.3 hPa - - - -
1788366906 30° C 47% 1020.4 hPa - - - -
1788366006 30.56° C 43% 1020.6 hPa - - - -
1788365106 31.11° C 43% 1020.5 hPa - - - -
1788364205 31.11° C 42% 1020.7 hPa - - - -
1788363305 31.67° C 42% 1020.7 hPa - - - -
1788362405 31.67° C 42% 1020.8 hPa - - - -
1788361505 30° C 42% 1020.7 hPa - - - -
1788360605 31.11° C 41% 1020.8 hPa - - - -
1788358814 32.22° C 39% 1021.2 hPa - - - -
1788357914 32.22° C 39% 1021.2 hPa - - - -

* Rain since midnight (hover to see other rain measurements)
** Current wind speed in m/s (hover to see current wind gust speed)